Latest Weather Observations for Low Rocky Point

IDT60801

Issued at 3:02 pm EST Sunday 28 August 2016 (issued every 30 minutes, with the page automatically refreshed every 10 minutes)

About weather observations | Map of weather stations | Latest weather observations for TAS | Other Formats
Station Details ID: 097080 Name: LOW ROCKY POINT Lat: -42.98 Lon: 145.50 Height: 34.0 m
Data from the previous 72 hours. | See also: Recent months at Low Rocky Point
Date/Time
EST
Temp
°C
App
Temp
°C
Dew
Point
°C
Rel
Hum
%
Delta-T
°C
Wind Press
QNH
hPa
Press
MSL
hPa
Rain since
9am
mm
Dir  Spd
km/h
Gust
km/h
Spd
kts
Gust
kts
28/03:00pm 10.0 2.9 3.3 63 2.9 WNW 30 35 16 19 1018.2 1018.2 0.0
28/02:30pm 10.3 3.7 2.2 57 3.4 WNW 26 32 14 17 1018.1 1018.1 0.0
28/02:00pm 10.1 3.8 3.6 64 2.8 W 26 32 14 17 1017.9 1018.0 0.0
28/01:30pm 10.4 4.1 1.5 54 3.7 WNW 24 30 13 16 1018.0 1018.0 0.0
28/01:00pm 11.0 4.9 0.7 49 4.2 WNW 22 28 12 15 1018.2 1018.3 0.0
28/12:30pm 10.5 4.1 1.1 52 3.9 WNW 24 30 13 16 1018.2 1018.2 0.0
28/12:00pm 8.9 4.4 2.3 63 2.8 W 15 20 8 11 1018.4 1018.5 0.0
28/11:30am 9.1 3.7 2.4 63 2.8 WSW 20 26 11 14 1018.1 1018.1 0.0
28/11:00am 8.8 4.6 1.7 61 2.9 WSW 13 17 7 9 1018.0 1018.1 0.0
28/10:30am 9.0 3.5 1.7 60 3.0 WSW 20 30 11 16 1017.8 1017.8 0.0
28/10:00am 9.8 4.1 0.4 52 3.8 WSW 20 30 11 16 1017.4 1017.5 0.0
28/09:30am 8.4 3.4 1.1 60 3.0 WSW 17 28 9 15 1017.4 1017.4 0.0
28/09:00am 7.4 2.9 2.1 69 2.2 SW 15 26 8 14 1017.1 1017.2 6.4
28/08:30am 8.8 3.3 0.5 56 3.3 WSW 19 26 10 14 1016.8 1016.8 6.4
28/08:00am 7.5 1.4 0.7 62 2.7 SW 22 35 12 19 1016.6 1016.7 6.4
28/07:30am 7.5 1.7 2.4 70 2.1 SW 22 35 12 19 1016.0 1016.0 6.4
28/07:00am 7.3 1.6 2.6 72 2.0 SW 22 35 12 19 1015.7 1015.7 6.4
28/06:30am 7.1 0.7 3.0 75 1.7 WSW 26 33 14 18 1015.2 1015.3 6.4
28/06:00am 7.3 1.6 2.8 73 1.9 SW 22 35 12 19 1014.6 1014.7 6.4
28/05:30am 6.7 1.3 2.4 74 1.8 SW 20 32 11 17 1014.1 1014.2 6.4
28/05:00am 6.3 -0.5 2.9 79 1.4 SW 28 41 15 22 1013.8 1013.9 6.4
28/04:30am 7.0 0.8 4.3 83 1.2 SW 26 37 14 20 1013.2 1013.3 6.4
28/04:00am 6.4 2.3 4.6 88 0.8 SW 15 30 8 16 1012.7 1012.8 6.2
28/03:30am 4.6 1.4 2.8 88 0.7 S 9 13 5 7 1012.5 1012.6 6.2
28/03:00am 5.3 -2.4 3.2 86 0.9 SW 33 48 18 26 1012.7 1012.8 6.2
28/02:31am 6.6 0.0 4.4 86 0.9 SW 28 52 15 28 1012.2 1012.3 6.2
28/02:30am 6.8 0.7 4.6 86 1.0 SW 26 52 14 28 1012.3 1012.4 6.2
28/02:00am 6.7 0.7 5.2 90 0.7 SSW 26 37 14 20 1011.8 1011.9 6.2
28/01:30am 7.0 0.8 6.1 94 0.4 SSW 28 41 15 22 1011.5 1011.6 6.2
28/01:00am 6.5 -0.5 5.9 96 0.3 S 32 43 17 23 1010.9 1011.0 6.2
28/12:34am 7.1 0.3 6.7 97 0.2 SSW 32 50 17 27 1010.2 1010.3 6.2
28/12:30am 6.9 0.0 6.5 97 0.2 SSW 32 44 17 24 1010.1 1010.2 6.2
28/12:00am 6.8 -0.6 6.7 99 0.0 SSW 35 46 19 25 1009.5 1009.6 6.2
 
Date/Time
EST
Temp
°C
App
Temp
°C
Dew
Point
°C
Rel
Hum
%
Delta-T
°C
Wind Press
QNH
hPa
Press
MSL
hPa
Rain since
9am
mm
Dir  Spd
km/h
Gust
km/h
Spd
kts
Gust
kts
27/11:30pm 7.2 -0.5 7.1 99 0.0 SSW 37 56 20 30 1008.5 1008.6 6.0
27/11:23pm 7.0 -0.7 6.9 99 0.0 SSW 37 56 20 30 1008.4 1008.5 6.0
27/11:00pm 7.3 0.4 7.2 99 0.0 SSW 33 50 18 27 1007.7 1007.8 6.0
27/10:56pm 7.5 0.6 7.4 99 0.0 SSW 33 52 18 28 1007.5 1007.6 6.0
27/10:40pm 7.8 -0.1 7.7 99 0.0 WSW 39 54 21 29 1006.9 1007.0 6.0
27/10:30pm 8.1 -0.1 8.0 99 0.0 WSW 41 54 22 29 1006.5 1006.6 6.0
27/10:00pm 9.4 1.9 9.3 99 0.0 W 39 46 21 25 1005.8 1005.9 5.4
27/09:30pm 9.6 0.4 9.5 99 0.0 W 48 61 26 33 1005.3 1005.4 4.6
27/09:25pm 9.4 -1.6 9.1 98 0.1 WNW 57 89 31 48 1005.3 1005.4 4.6
27/09:19pm 9.5 -3.8 9.2 98 0.1 WNW 69 98 37 53 1005.2 1005.3 4.6
27/09:00pm 10.5 -2.1 10.2 98 0.2 NW 67 85 36 46 1004.5 1004.6 4.0
27/08:30pm 11.0 -2.1 10.5 97 0.3 NW 70 91 38 49 1004.6 1004.7 2.6
27/08:05pm 11.1 -1.5 10.2 94 0.5 NW 67 85 36 46 1004.4 1004.5 1.8
27/08:00pm 11.2 -2.0 10.1 93 0.6 NW 70 87 38 47 1004.5 1004.6 1.2
27/07:31pm 11.5 -1.1 10.4 93 0.6 NW 67 91 36 49 1004.8 1004.9 1.0
27/07:30pm 11.5 -1.1 10.4 93 0.6 NW 67 83 36 45 1004.7 1004.8 1.0
27/07:03pm 11.2 -1.8 10.1 93 0.6 NW 69 87 37 47 1005.1 1005.2 1.0
27/07:00pm 11.2 -1.9 9.9 92 0.7 NW 69 83 37 45 1005.2 1005.3 0.8
27/06:40pm 11.5 -1.6 9.8 89 0.9 NW 69 87 37 47 1005.4 1005.5 0.6
27/06:34pm 11.6 0.8 9.9 89 0.9 NNW 57 78 31 42 1005.6 1005.7 0.6
27/06:30pm 11.6 1.4 9.9 89 0.9 NNW 54 70 29 38 1005.6 1005.7 0.6
27/06:17pm 11.7 0.9 9.8 88 1.0 NNW 57 76 31 41 1005.8 1005.9 0.6
27/06:00pm 11.7 0.4 9.6 87 1.1 NW 59 76 32 41 1006.1 1006.2 0.6
27/05:35pm 11.4 -0.4 9.0 85 1.2 NW 61 80 33 43 1006.4 1006.5 0.6
27/05:30pm 11.5 -1.5 8.7 83 1.4 NW 67 80 36 43 1006.5 1006.6 0.6
27/05:00pm 11.8 -0.5 8.6 81 1.6 NW 63 80 34 43 1006.9 1007.0 0.6
27/04:30pm 11.8 0.3 8.6 81 1.6 NW 59 78 32 42 1007.0 1007.1 0.6
27/04:02pm 11.7 0.8 8.7 82 1.5 NW 56 74 30 40 1007.0 1007.1 0.6
27/04:00pm 11.6 0.5 8.8 83 1.4 NW 57 74 31 40 1007.1 1007.2 0.6
27/03:34pm 11.5 0.6 9.6 88 1.0 NW 57 78 31 42 1007.4 1007.5 0.6
27/03:30pm 11.6 1.0 9.9 89 0.9 NW 56 72 30 39 1007.6 1007.7 0.6
27/03:25pm 11.5 1.2 9.8 89 0.9 NW 54 72 29 39 1007.6 1007.7 0.6
27/03:00pm 11.2 -0.4 9.8 91 0.7 NW 61 76 33 41 1007.8 1007.9 0.6
27/02:30pm 10.1 -2.1 8.9 92 0.6 NW 63 82 34 44 1007.8 1007.9 0.6
27/02:03pm 11.1 0.7 9.4 89 0.9 NW 54 72 29 39 1007.9 1008.0 0.4
27/02:00pm 11.0 0.2 9.3 89 0.9 NW 56 72 30 39 1008.0 1008.1 0.4
27/01:37pm 11.9 0.8 8.9 82 1.5 NW 57 76 31 41 1008.3 1008.4 0.4
27/01:30pm 12.0 0.1 8.8 81 1.6 NW 61 74 33 40 1008.3 1008.4 0.4
27/01:00pm 11.6 1.4 9.9 89 0.9 NW 54 72 29 39 1008.8 1008.9 0.4
27/12:41pm 10.9 -1.0 8.7 86 1.1 NW 61 83 33 45 1008.7 1008.8 0.4
27/12:30pm 11.9 1.0 9.5 85 1.2 NW 57 72 31 39 1009.1 1009.2 0.4
27/12:00pm 11.9 1.3 9.8 87 1.1 NW 56 72 30 39 1009.4 1009.5 0.4
27/11:41am 11.5 0.6 9.6 88 1.0 NW 57 78 31 42 1009.6 1009.7 0.4
27/11:30am 11.3 0.1 9.7 90 0.8 NW 59 72 32 39 1009.9 1010.0 0.4
27/11:16am 11.2 0.4 9.8 91 0.7 NW 57 76 31 41 1010.0 1010.1 0.4
27/11:00am 11.5 0.3 9.9 90 0.8 NW 59 74 32 40 1010.0 1010.1 0.4
27/10:30am 11.2 0.6 10.7 97 0.3 NW 57 76 31 41 1010.3 1010.4 0.4
27/10:00am 10.9 0.4 10.4 97 0.3 NW 56 76 30 41 1010.7 1010.8 0.0
27/09:30am 9.9 -1.5 9.1 95 0.4 NW 59 82 32 44 1011.1 1011.2 0.0
27/09:23am 11.0 1.6 10.1 94 0.5 NW 50 70 27 38 1011.1 1011.2 0.0
27/09:00am 10.9 0.3 10.1 95 0.4 NW 56 69 30 37 1011.2 1011.3 4.2
27/08:30am 10.6 0.0 10.0 96 0.3 NW 56 72 30 39 1011.3 1011.4 4.2
27/08:00am 9.8 -1.5 9.3 97 0.2 NW 59 80 32 43 1011.4 1011.5 4.2
27/07:40am 10.6 0.8 10.1 97 0.3 NW 52 70 28 38 1011.4 1011.5 4.0
27/07:30am 10.3 0.0 9.8 97 0.3 NW 54 67 29 36 1011.2 1011.3 4.0
27/07:00am 9.6 -0.9 9.0 96 0.3 NW 54 67 29 36 1011.5 1011.6 3.8
27/06:42am 10.1 1.1 9.0 93 0.5 NW 46 67 25 36 1011.3 1011.4 3.6
27/06:30am 10.1 1.1 9.0 93 0.5 NW 46 61 25 33 1011.5 1011.6 3.6
27/06:15am 10.5 0.6 8.4 87 1.0 NW 50 72 27 39 1011.5 1011.6 3.6
27/06:00am 10.7 0.3 7.9 83 1.4 NW 52 63 28 34 1011.6 1011.7 3.6
27/05:30am 10.7 0.3 7.9 83 1.4 NW 52 67 28 36 1011.7 1011.8 3.6
27/05:00am 10.6 0.7 8.2 85 1.2 NW 50 67 27 36 1011.8 1011.9 3.6
27/04:30am 10.5 0.4 8.9 90 0.8 NW 52 65 28 35 1011.6 1011.7 3.6
27/04:17am 10.5 1.7 9.6 94 0.5 NW 46 67 25 36 1011.5 1011.6 3.6
27/04:00am 10.3 0.4 9.7 96 0.3 NW 52 63 28 34 1011.6 1011.7 3.6
27/03:30am 9.9 0.7 9.6 98 0.2 NW 48 57 26 31 1011.8 1011.9 3.6
27/03:00am 10.0 1.8 9.7 98 0.2 NW 43 54 23 29 1011.9 1012.0 3.6
27/02:30am 9.7 2.2 9.6 99 0.0 NW 39 46 21 25 1012.2 1012.3 3.6
27/02:00am 9.7 0.9 9.6 99 0.0 WNW 46 56 25 30 1012.9 1013.0 3.4
27/01:49am 9.8 2.0 9.7 99 0.1 NW 41 59 22 32 1013.1 1013.2 3.2
27/01:30am 9.8 2.0 9.7 99 0.1 NW 41 57 22 31 1013.4 1013.5 3.2
27/01:08am 10.2 2.5 10.1 99 0.1 NW 41 59 22 32 1013.3 1013.4 2.8
27/01:00am 10.2 2.5 10.0 99 0.1 NW 41 48 22 26 1013.2 1013.3 2.8
27/12:30am 10.0 2.6 9.9 99 0.1 NW 39 50 21 27 1013.3 1013.4 2.6
27/12:00am 9.6 1.7 9.5 99 0.0 NW 41 59 22 32 1013.1 1013.2 2.4
 
Date/Time
EST
Temp
°C
App
Temp
°C
Dew
Point
°C
Rel
Hum
%
Delta-T
°C
Wind Press
QNH
hPa
Press
MSL
hPa
Rain since
9am
mm
Dir  Spd
km/h
Gust
km/h
Spd
kts
Gust
kts
26/11:30pm 9.6 1.3 9.3 98 0.1 NW 43 54 23 29 1013.3 1013.4 2.2
26/11:00pm 10.2 2.4 9.6 96 0.3 NW 41 50 22 27 1013.4 1013.5 2.0
26/10:30pm 10.0 2.5 9.4 96 0.3 NW 39 50 21 27 1013.7 1013.8 1.8
26/10:00pm 10.4 2.9 9.5 94 0.5 NW 39 46 21 25 1013.8 1013.9 1.8
26/09:30pm 10.3 2.5 9.7 96 0.3 NW 41 52 22 28 1014.2 1014.3 1.8
26/09:00pm 9.9 1.4 9.1 95 0.4 NW 44 57 24 31 1014.2 1014.3 1.8
26/08:30pm 9.9 2.4 9.3 96 0.3 WNW 39 48 21 26 1014.1 1014.2 1.8
26/08:26pm 9.7 1.3 8.9 95 0.4 WNW 43 61 23 33 1014.2 1014.3 1.8
26/08:00pm 10.4 1.9 9.3 93 0.5 WNW 44 52 24 28 1014.0 1014.1 1.6
26/07:30pm 10.6 2.8 9.7 94 0.5 NW 41 50 22 27 1013.8 1013.9 1.6
26/07:00pm 9.9 1.5 9.0 94 0.4 NW 43 54 23 29 1013.6 1013.7 1.6
26/06:30pm 10.7 2.8 9.3 91 0.7 NW 41 52 22 28 1013.4 1013.5 1.6
26/06:00pm 10.6 2.6 9.0 90 0.8 NW 41 54 22 29 1013.4 1013.5 1.6
26/05:30pm 10.6 2.2 9.0 90 0.8 NW 43 56 23 30 1013.1 1013.2 1.6
26/05:00pm 10.8 2.5 9.2 90 0.8 NW 43 54 23 29 1013.0 1013.1 1.6
26/04:30pm 10.7 2.3 9.1 90 0.8 NW 43 50 23 27 1012.7 1012.8 1.6
26/04:00pm 10.8 2.8 9.1 89 0.8 NW 41 52 22 28 1012.8 1012.9 1.6
26/03:30pm 10.6 2.1 8.5 87 1.0 NW 43 54 23 29 1012.7 1012.8 1.6
26/03:00pm 11.1 2.5 9.0 87 1.0 NW 44 52 24 28 1012.7 1012.8 1.6
26/02:30pm 11.0 2.5 9.3 89 0.9 NW 44 54 24 29 1012.7 1012.8 1.6
26/02:00pm 10.7 2.3 9.5 92 0.6 NW 44 54 24 29 1013.1 1013.2 1.6
26/01:30pm 10.6 2.3 9.5 93 0.6 NW 43 54 23 29 1013.1 1013.2 1.6
26/01:00pm 10.5 2.1 9.7 95 0.4 NW 44 54 24 29 1013.3 1013.4 1.6
26/12:30pm 10.2 1.5 9.9 98 0.2 NW 46 54 25 29 1013.6 1013.7 1.6
26/12:00pm 9.6 1.3 9.3 98 0.1 NW 43 54 23 29 1014.0 1014.1 1.6
26/11:30am 9.6 1.1 9.1 97 0.2 WNW 44 57 24 31 1014.3 1014.4 1.4
26/11:00am 9.9 1.3 9.0 94 0.4 NW 44 56 24 30 1014.2 1014.3 0.2
26/10:30am 9.2 0.6 8.0 92 0.6 NW 43 61 23 33 1014.3 1014.4 0.2
26/10:24am 10.1 3.1 8.5 90 0.8 NW 35 57 19 31 1014.3 1014.4 0.2
26/10:00am 10.3 1.5 8.1 86 1.1 WNW 44 52 24 28 1014.3 1014.4 0.2
26/09:30am 10.2 2.4 8.1 87 1.0 NW 39 48 21 26 1014.4 1014.5 0.2
26/09:00am 9.8 1.6 8.2 90 0.8 WNW 41 50 22 27 1014.3 1014.4 5.2
26/08:30am 9.6 2.7 9.0 96 0.3 WNW 35 44 19 24 1014.3 1014.4 5.2
26/08:00am 9.3 2.4 8.8 97 0.2 WNW 35 44 19 24 1014.2 1014.3 5.2
26/07:30am 9.1 3.1 8.8 98 0.1 NW 30 39 16 21 1014.1 1014.2 5.2
26/07:00am 8.9 0.7 8.3 96 0.3 WNW 41 48 22 26 1014.0 1014.1 4.8
26/06:30am 8.6 0.7 7.7 94 0.4 WNW 39 52 21 28 1013.8 1013.9 4.6
26/06:00am 8.7 0.9 6.7 87 0.9 WNW 37 54 20 29 1013.6 1013.7 4.2
26/05:30am 9.3 1.9 6.6 83 1.3 NW 35 50 19 27 1013.6 1013.7 4.0
26/05:00am 9.1 1.7 6.9 86 1.0 NW 35 43 19 23 1013.7 1013.8 4.0
26/04:30am 9.3 1.1 6.6 83 1.3 WNW 39 52 21 28 1013.6 1013.7 4.0
26/04:00am 9.1 0.2 6.9 86 1.0 WNW 43 52 23 28 1013.6 1013.7 4.0
26/03:30am 8.6 0.9 7.1 90 0.7 WNW 37 46 20 25 1013.6 1013.7 4.0
26/03:00am 8.4 1.1 7.2 92 0.6 WNW 35 44 19 24 1013.8 1013.9 4.0
26/02:30am 8.0 -0.1 7.1 94 0.4 WNW 39 46 21 25 1014.0 1014.1 4.0
26/02:00am 8.0 0.3 7.1 94 0.4 WNW 37 46 20 25 1014.3 1014.4 4.0
26/01:30am 8.0 1.6 6.9 93 0.5 WNW 30 37 16 20 1014.5 1014.6 4.0
26/01:00am 8.5 1.7 6.8 89 0.8 WNW 32 39 17 21 1014.5 1014.6 3.4
26/12:30am 8.2 -0.5 6.2 87 0.9 WNW 41 50 22 27 1014.6 1014.7 3.4
26/12:00am 8.0 1.7 5.8 86 1.0 WNW 28 39 15 21 1014.6 1014.7 3.2
 
Date/Time
EST
Temp
°C
App
Temp
°C
Dew
Point
°C
Rel
Hum
%
Delta-T
°C
Wind Press
QNH
hPa
Press
MSL
hPa
Rain since
9am
mm
Dir  Spd
km/h
Gust
km/h
Spd
kts
Gust
kts
25/11:30pm 7.9 1.5 5.0 82 1.3 WNW 28 32 15 17 1014.6 1014.7 2.2
25/11:00pm 9.0 0.8 5.0 76 1.8 WNW 37 50 20 27 1014.7 1014.8 2.2
25/10:30pm 9.0 2.1 4.8 75 1.9 WNW 30 39 16 21 1014.8 1014.9 2.2
25/10:00pm 8.9 1.4 3.3 68 2.4 WNW 32 43 17 23 1014.9 1015.0 2.2
25/09:30pm 8.9 1.2 3.5 69 2.3 WNW 33 39 18 21 1015.1 1015.2 2.2
25/09:00pm 8.6 2.0 4.4 75 1.8 WNW 28 33 15 18 1014.9 1015.0 2.2
25/08:30pm 8.9 2.8 4.7 75 1.9 WNW 26 35 14 19 1014.9 1015.0 2.2
25/08:00pm 8.8 1.5 4.4 74 1.9 W 32 37 17 20 1015.0 1015.1 2.2
25/07:30pm 8.2 1.2 4.0 75 1.8 WNW 30 43 16 23 1015.0 1015.1 2.2
25/07:00pm 8.5 2.5 3.1 69 2.3 WNW 24 33 13 18 1014.8 1014.9 2.2
25/06:30pm 8.9 2.4 4.5 74 1.9 WSW 28 37 15 20 1014.7 1014.8 2.2
25/06:00pm 8.9 3.2 4.7 75 1.9 W 24 32 13 17 1014.4 1014.5 2.2
25/05:30pm 8.4 3.5 5.0 79 1.5 WSW 20 30 11 16 1014.0 1014.1 2.2
25/05:00pm 8.7 3.1 5.3 79 1.5 WSW 24 32 13 17 1013.7 1013.8 2.2
25/04:30pm 8.6 4.0 5.5 81 1.4 WSW 19 30 10 16 1013.7 1013.8 2.0
25/04:00pm 8.8 2.7 4.8 76 1.8 WSW 26 35 14 19 1013.6 1013.7 1.8
25/03:30pm 9.7 4.8 5.1 73 2.1 WSW 20 26 11 14 1013.6 1013.7 1.8

Other Formats:

Comma delimited format used in spreadsheet applications
http://www.bom.gov.au/fwo/IDT60801/IDT60801.95961.axf

JavaScript Object Notation format (JSON) in row-major order
http://www.bom.gov.au/fwo/IDT60801/IDT60801.95961.json